createdAt,value
2022-11-27T00:01:27.597Z,101456.22
2022-11-27T00:03:56.581Z,101460.00
2022-11-27T00:06:26.440Z,101457.41
2022-11-27T00:08:56.337Z,101448.19
2022-11-27T00:11:25.817Z,101444.72
2022-11-27T00:13:53.491Z,101439.16
2022-11-27T00:16:22.629Z,101442.97
2022-11-27T00:18:50.636Z,101445.16
2022-11-27T00:21:27.518Z,101455.09
2022-11-27T00:23:55.624Z,101449.53
2022-11-27T00:26:23.711Z,101449.09
2022-11-27T00:28:51.861Z,101452.78
2022-11-27T00:31:29.187Z,101451.88
2022-11-27T00:33:59.667Z,101448.06
2022-11-27T00:36:29.105Z,101449.25
2022-11-27T00:38:56.891Z,101456.72
2022-11-27T00:41:26.907Z,101444.91
2022-11-27T00:43:55.045Z,101445.94
2022-11-27T00:46:28.844Z,101451.31
2022-11-27T00:48:57.820Z,101449.81
2022-11-27T00:51:26.068Z,101458.44
2022-11-27T00:53:53.879Z,101451.16
2022-11-27T00:56:26.052Z,101445.94
2022-11-27T00:58:53.868Z,101448.72
2022-11-27T01:01:29.793Z,101452.66
2022-11-27T01:03:58.753Z,101449.88
2022-11-27T01:06:27.872Z,101447.09
2022-11-27T01:08:55.420Z,101451.63
2022-11-27T01:11:29.427Z,101444.44
2022-11-27T01:13:59.500Z,101448.22
2022-11-27T01:16:29.486Z,101443.13
2022-11-27T01:18:59.277Z,101448.69
2022-11-27T01:21:30.351Z,101437.59
2022-11-27T01:23:58.747Z,101440.22
2022-11-27T01:26:26.376Z,101433.50
2022-11-27T01:28:55.974Z,101437.47
2022-11-27T01:31:27.257Z,101434.97
2022-11-27T01:33:57.464Z,101435.84
2022-11-27T01:36:25.089Z,101434.81
2022-11-27T01:38:52.878Z,101434.13
2022-11-27T01:41:26.092Z,101429.16
2022-11-27T01:43:56.823Z,101434.38
2022-11-27T01:46:33.166Z,101429.88
2022-11-27T01:49:14.313Z,101426.97
2022-11-27T01:51:47.097Z,101429.03
2022-11-27T01:54:16.315Z,101432.66
2022-11-27T01:56:46.578Z,101428.44
2022-11-27T01:59:16.162Z,101432.78
2022-11-27T02:01:43.652Z,101433.81
2022-11-27T02:04:11.131Z,101437.47
2022-11-27T02:06:38.580Z,101436.75
2022-11-27T02:09:06.302Z,101431.34
2022-11-27T02:11:52.231Z,101432.06
2022-11-27T02:14:25.657Z,101428.59
2022-11-27T02:16:59.163Z,101431.22
2022-11-27T02:20:04.167Z,101424.06
2022-11-27T02:23:09.229Z,101418.53
2022-11-27T02:26:03.760Z,101418.38
2022-11-27T02:29:02.533Z,101418.66
2022-11-27T02:31:58.426Z,101415.91
2022-11-27T02:34:35.577Z,101419.84
2022-11-27T02:37:15.799Z,101423.50
2022-11-27T02:39:58.444Z,101419.84
2022-11-27T02:42:29.089Z,101420.84
2022-11-27T02:45:04.556Z,101417.81
2022-11-27T02:47:32.597Z,101415.19
2022-11-27T02:50:02.355Z,101417.94
2022-11-27T02:52:31.619Z,101417.06
2022-11-27T02:55:05.031Z,101415.19
2022-11-27T02:57:34.533Z,101409.63
2022-11-27T03:00:02.489Z,101408.59
2022-11-27T03:02:37.433Z,101406.72
2022-11-27T03:05:09.971Z,101414.47
2022-11-27T03:07:46.998Z,101403.38
2022-11-27T03:10:47.409Z,101413.44
2022-11-27T03:13:15.106Z,101407.91
2022-11-27T03:16:16.100Z,101405.97
2022-11-27T03:18:57.957Z,101409.63
2022-11-27T03:21:38.994Z,101399.59
2022-11-27T03:24:08.860Z,101407.19
2022-11-27T03:26:37.932Z,101408.03
2022-11-27T03:29:11.091Z,101407.91
2022-11-27T03:31:38.841Z,101403.06
2022-11-27T03:34:06.787Z,101401.47
2022-11-27T03:36:34.287Z,101409.94
2022-11-27T03:39:02.355Z,101406.72
2022-11-27T03:41:41.963Z,101394.91
2022-11-27T03:44:14.558Z,101392.69
2022-11-27T03:47:25.765Z,101397.66
2022-11-27T03:50:41.195Z,101408.75
2022-11-27T03:53:17.281Z,101410.50
2022-11-27T03:56:09.668Z,101403.22
2022-11-27T03:58:58.765Z,101403.22
2022-11-27T04:01:28.371Z,101405.13
2022-11-27T04:03:56.070Z,101407.91
2022-11-27T04:06:23.631Z,101406.28
2022-11-27T04:08:51.197Z,101408.47
2022-11-27T04:11:18.867Z,101412.97
2022-11-27T04:13:46.406Z,101404.66
2022-11-27T04:16:13.897Z,101414.28
2022-11-27T04:18:41.390Z,101415.88
2022-11-27T04:21:08.896Z,101419.09
2022-11-27T04:23:38.482Z,101417.63
2022-11-27T04:26:05.999Z,101412.22
2022-11-27T04:28:33.474Z,101418.47
2022-11-27T04:31:01.145Z,101420.09
2022-11-27T04:33:28.671Z,101413.81
2022-11-27T04:35:56.179Z,101418.22
2022-11-27T04:38:23.755Z,101419.09
2022-11-27T04:40:54.151Z,101419.25
2022-11-27T04:43:21.712Z,101418.78
2022-11-27T04:45:49.215Z,101413.38
2022-11-27T04:48:16.647Z,101418.47
2022-11-27T04:50:44.076Z,101414.72
2022-11-27T04:53:11.527Z,101413.69
2022-11-27T04:55:38.920Z,101408.84
2022-11-27T04:58:06.358Z,101398.81
2022-11-27T05:00:33.860Z,101409.88
2022-11-27T05:03:01.421Z,101403.44
2022-11-27T05:05:29.027Z,101403.31
2022-11-27T05:07:56.619Z,101401.44
2022-11-27T05:10:24.292Z,101403.75
2022-11-27T05:12:51.742Z,101400.69
2022-11-27T05:15:19.403Z,101409.91
2022-11-27T05:17:46.822Z,101411.63
2022-11-27T05:20:14.238Z,101411.91
2022-11-27T05:22:41.797Z,101412.34
2022-11-27T05:25:09.600Z,101414.09
2022-11-27T05:27:37.096Z,101410.00
2022-11-27T05:30:05.026Z,101417.75
2022-11-27T05:32:32.408Z,101414.97
2022-11-27T05:34:59.857Z,101415.69
2022-11-27T05:37:27.404Z,101408.66
2022-11-27T05:39:54.898Z,101407.94
2022-11-27T05:42:22.413Z,101412.22
2022-11-27T05:44:53.925Z,101419.50
2022-11-27T05:47:24.259Z,101419.75
2022-11-27T05:49:51.790Z,101426.00
2022-11-27T05:52:19.280Z,101423.09
2022-11-27T05:54:46.727Z,101422.78
2022-11-27T05:57:14.176Z,101424.53
2022-11-27T05:59:41.592Z,101419.72
2022-11-27T06:02:09.092Z,101417.81
2022-11-27T06:04:36.628Z,101427.03
2022-11-27T06:07:04.290Z,101423.34
2022-11-27T06:09:31.725Z,101426.84
2022-11-27T06:11:59.353Z,101426.69
2022-11-27T06:14:26.752Z,101419.72
2022-11-27T06:16:54.223Z,101424.50
2022-11-27T06:19:21.766Z,101420.69
2022-11-27T06:21:49.231Z,101419.84
2022-11-27T06:24:16.644Z,101417.22
2022-11-27T06:26:44.111Z,101417.91
2022-11-27T06:29:11.757Z,101418.94
2022-11-27T06:31:39.976Z,101421.25
2022-11-27T06:34:07.804Z,101425.22
2022-11-27T06:36:37.702Z,101421.25
2022-11-27T06:39:06.074Z,101423.00
2022-11-27T06:41:33.866Z,101426.66
2022-11-27T06:44:02.190Z,101424.19
2022-11-27T06:46:30.177Z,101419.94
2022-11-27T06:48:58.654Z,101420.97
2022-11-27T06:51:28.366Z,101420.09
2022-11-27T06:53:56.448Z,101413.50
2022-11-27T06:56:27.082Z,101417.31
2022-11-27T06:58:56.852Z,101428.56
2022-11-27T07:01:28.666Z,101420.81
2022-11-27T07:03:56.610Z,101421.84
2022-11-27T07:06:25.721Z,101421.84
2022-11-27T07:08:54.396Z,101430.16
2022-11-27T07:11:24.894Z,101428.41
2022-11-27T07:13:54.842Z,101432.06
2022-11-27T07:16:22.383Z,101431.75
2022-11-27T07:18:53.646Z,101435.09
2022-11-27T07:21:21.741Z,101435.09
2022-11-27T07:23:49.260Z,101426.78
2022-11-27T07:26:19.368Z,101427.63
2022-11-27T07:28:47.572Z,101434.38
2022-11-27T07:31:21.948Z,101435.94
2022-11-27T07:33:51.804Z,101440.31
2022-11-27T07:36:22.593Z,101447.03
2022-11-27T07:38:51.025Z,101447.94
2022-11-27T07:41:18.517Z,101446.34
2022-11-27T07:43:46.750Z,101437.56
2022-11-27T07:46:18.655Z,101439.63
2022-11-27T07:48:46.235Z,101442.38
2022-11-27T07:51:16.851Z,101447.94
2022-11-27T07:53:44.481Z,101436.69
2022-11-27T07:56:14.483Z,101436.84
2022-11-27T07:58:42.000Z,101430.97
2022-11-27T08:01:11.961Z,101432.72
2022-11-27T08:03:40.028Z,101436.38
2022-11-27T08:06:16.000Z,101431.28
2022-11-27T08:08:43.820Z,101423.84
2022-11-27T08:11:29.921Z,101421.94
2022-11-27T08:14:00.117Z,101426.47
2022-11-27T08:16:28.967Z,101428.84
2022-11-27T08:18:56.634Z,101424.25
2022-11-27T08:21:24.473Z,101432.44
2022-11-27T08:23:51.997Z,101430.69
2022-11-27T08:26:20.932Z,101436.22
2022-11-27T08:28:48.390Z,101442.50
2022-11-27T08:31:16.030Z,101435.19
2022-11-27T08:33:43.624Z,101436.63
2022-11-27T08:36:16.285Z,101435.31
2022-11-27T08:38:46.147Z,101441.09
2022-11-27T08:41:13.683Z,101442.28
2022-11-27T08:43:41.151Z,101447.97
2022-11-27T08:46:08.759Z,101449.88
2022-11-27T08:48:36.840Z,101450.44
2022-11-27T08:51:10.373Z,101455.25
2022-11-27T08:53:38.288Z,101460.66
2022-11-27T08:56:08.214Z,101449.50
2022-11-27T08:58:35.908Z,101461.22
2022-11-27T09:01:21.865Z,101456.81
2022-11-27T09:03:49.978Z,101454.31
2022-11-27T09:06:21.487Z,101462.66
2022-11-27T09:08:50.064Z,101460.75
2022-11-27T09:11:20.179Z,101460.91
2022-11-27T09:13:47.980Z,101458.69
2022-11-27T09:16:18.212Z,101462.75
2022-11-27T09:18:47.682Z,101466.16
2022-11-27T09:21:17.112Z,101457.66
2022-11-27T09:23:45.058Z,101458.41
2022-11-27T09:26:17.171Z,101458.78
2022-11-27T09:28:45.444Z,101461.56
2022-11-27T09:31:15.019Z,101458.16
2022-11-27T09:33:43.341Z,101461.97
2022-11-27T09:36:16.485Z,101456.91
2022-11-27T09:38:44.753Z,101459.25
2022-11-27T09:41:12.121Z,101463.06
2022-11-27T09:43:59.413Z,101463.38
2022-11-27T09:46:32.010Z,101453.47
2022-11-27T09:49:03.085Z,101452.28
2022-11-27T09:51:54.940Z,101453.31
2022-11-27T09:54:41.311Z,101450.38
2022-11-27T09:57:15.699Z,101452.19
2022-11-27T09:59:51.848Z,101442.97
2022-11-27T10:02:32.041Z,101439.91
2022-11-27T10:05:14.029Z,101440.63
2022-11-27T10:08:04.710Z,101445.13
2022-11-27T10:10:39.192Z,101434.59
2022-11-27T10:13:22.150Z,101426.56
2022-11-27T10:16:07.934Z,101420.56
2022-11-27T10:18:47.964Z,101413.09
2022-11-27T10:21:17.472Z,101415.47
2022-11-27T10:23:50.756Z,101410.19
2022-11-27T10:26:25.760Z,101412.16
2022-11-27T10:29:33.854Z,101402.22
2022-11-27T10:32:22.108Z,101401.91
2022-11-27T10:35:07.176Z,101396.81
2022-11-27T10:37:43.705Z,101399.28
2022-11-27T10:40:14.172Z,101399.59
2022-11-27T10:43:18.671Z,101395.41
2022-11-27T10:45:56.618Z,101395.22
2022-11-27T10:48:24.830Z,101391.84
2022-11-27T10:50:52.306Z,101388.09
2022-11-27T10:53:37.239Z,101378.91
2022-11-27T10:56:04.656Z,101387.31
2022-11-27T10:58:34.944Z,101380.44
2022-11-27T11:01:09.303Z,101378.69
2022-11-27T11:03:37.563Z,101376.47
2022-11-27T11:06:20.801Z,101373.69
2022-11-27T11:09:03.015Z,101371.63
2022-11-27T11:11:30.540Z,101374.25
2022-11-27T11:13:58.068Z,101376.31
2022-11-27T11:16:34.768Z,101381.56
2022-11-27T11:19:03.737Z,101376.16
2022-11-27T11:21:38.750Z,101383.81
2022-11-27T11:24:19.243Z,101374.25
2022-11-27T11:26:50.560Z,101387.16
2022-11-27T11:29:31.092Z,101382.63
2022-11-27T11:32:14.848Z,101383.09
2022-11-27T11:35:00.422Z,101376.69
2022-11-27T11:37:44.592Z,101381.13
2022-11-27T11:40:16.541Z,101376.75
2022-11-27T11:42:58.879Z,101369.56
2022-11-27T11:45:33.117Z,101364.56
2022-11-27T11:48:25.341Z,101369.47
2022-11-27T11:50:59.577Z,101367.44
2022-11-27T11:53:45.644Z,101361.63
2022-11-27T11:56:22.675Z,101356.50
2022-11-27T11:59:15.103Z,101358.31
2022-11-27T12:01:45.309Z,101357.91
2022-11-27T12:04:31.379Z,101351.66
2022-11-27T12:06:58.813Z,101352.63
2022-11-27T12:09:44.796Z,101343.66
2022-11-27T12:12:34.297Z,101349.34
2022-11-27T12:15:16.732Z,101344.25
2022-11-27T12:18:25.681Z,101342.47
2022-11-27T12:21:12.137Z,101339.50
2022-11-27T12:24:14.686Z,101335.72
2022-11-27T12:27:33.979Z,101322.09
2022-11-27T12:30:39.696Z,101331.00
2022-11-27T12:33:20.344Z,101322.47
2022-11-27T12:36:35.723Z,101322.47
2022-11-27T12:39:28.444Z,101314.63
2022-11-27T12:42:08.536Z,101309.09
2022-11-27T12:45:08.201Z,101318.44
2022-11-27T12:47:40.992Z,101322.66
2022-11-27T12:50:17.340Z,101326.19
2022-11-27T12:52:49.648Z,101322.66
2022-11-27T12:55:23.356Z,101318.09
2022-11-27T12:58:04.864Z,101321.63
2022-11-27T13:00:37.434Z,101313.00
2022-11-27T13:03:21.800Z,101314.75
2022-11-27T13:06:08.681Z,101323.81
2022-11-27T13:08:45.280Z,101314.28
2022-11-27T13:11:20.214Z,101312.25
2022-11-27T13:13:52.120Z,101316.56
2022-11-27T13:16:27.394Z,101316.56
2022-11-27T13:19:06.820Z,101321.28
2022-11-27T13:21:36.350Z,101308.16
2022-11-27T13:24:04.228Z,101307.63
2022-11-27T13:26:45.769Z,101303.72
2022-11-27T13:29:28.425Z,101307.69
2022-11-27T13:32:00.512Z,101308.25
2022-11-27T13:34:30.987Z,101305.81
2022-11-27T13:37:02.483Z,101304.75
2022-11-27T13:39:40.110Z,101304.38
2022-11-27T13:42:21.162Z,101298.66
2022-11-27T13:45:06.407Z,101302.88
2022-11-27T13:47:43.876Z,101304.22
2022-11-27T13:50:18.193Z,101302.00
2022-11-27T13:53:04.314Z,101303.03
2022-11-27T13:55:38.964Z,101303.03
2022-11-27T13:58:08.217Z,101299.69
2022-11-27T14:00:39.385Z,101303.50
2022-11-27T14:03:10.699Z,101294.28
2022-11-27T14:05:44.012Z,101299.78
2022-11-27T14:08:35.099Z,101305.09
2022-11-27T14:11:08.607Z,101303.81
2022-11-27T14:13:46.284Z,101299.06
2022-11-27T14:16:23.066Z,101298.25
2022-11-27T14:18:54.977Z,101296.50
2022-11-27T14:21:44.138Z,101301.72
2022-11-27T14:24:25.205Z,101304.69
2022-11-27T14:26:54.584Z,101300.88
2022-11-27T14:29:25.657Z,101302.94
2022-11-27T14:31:58.911Z,101298.25
2022-11-27T14:34:31.333Z,101300.31
2022-11-27T14:37:00.130Z,101301.66
2022-11-27T14:39:33.203Z,101301.03
2022-11-27T14:42:02.395Z,101301.91
2022-11-27T14:44:30.705Z,101291.78
2022-11-27T14:47:02.283Z,101293.66
2022-11-27T14:49:31.909Z,101295.59
2022-11-27T14:52:05.860Z,101294.06
2022-11-27T14:54:36.994Z,101297.31
2022-11-27T14:57:05.996Z,101294.47
2022-11-27T14:59:33.615Z,101300.72
2022-11-27T15:02:22.239Z,101301.13
2022-11-27T15:05:04.128Z,101294.13
2022-11-27T15:07:37.641Z,101294.13
2022-11-27T15:10:38.252Z,101303.50
2022-11-27T15:13:08.709Z,101298.44
2022-11-27T15:15:43.687Z,101299.38
2022-11-27T15:18:20.836Z,101296.06
2022-11-27T15:20:48.843Z,101296.06
2022-11-27T15:23:18.196Z,101292.72
2022-11-27T15:25:49.267Z,101290.22
2022-11-27T15:28:36.721Z,101289.06
2022-11-27T15:31:25.382Z,101303.97
2022-11-27T15:34:05.155Z,101302.94
2022-11-27T15:36:40.528Z,101295.19
2022-11-27T15:39:22.129Z,101301.31
2022-11-27T15:42:09.620Z,101297.50
2022-11-27T15:44:38.363Z,101303.25
2022-11-27T15:47:07.136Z,101300.72
2022-11-27T15:49:34.628Z,101298.88
2022-11-27T15:52:02.149Z,101297.84
2022-11-27T15:54:29.632Z,101297.97
2022-11-27T15:56:58.464Z,101289.38
2022-11-27T15:59:27.270Z,101289.66
2022-11-27T16:01:56.132Z,101289.78
2022-11-27T16:04:24.173Z,101291.41
2022-11-27T16:06:52.040Z,101289.28
2022-11-27T16:09:19.850Z,101288.09
2022-11-27T16:11:47.399Z,101288.59
2022-11-27T16:14:14.998Z,101287.75
2022-11-27T16:16:42.573Z,101288.91
2022-11-27T16:19:12.293Z,101288.34
2022-11-27T16:21:39.856Z,101289.06
2022-11-27T16:24:13.644Z,101292.25
2022-11-27T16:26:41.298Z,101296.91
2022-11-27T16:29:09.956Z,101295.06
2022-11-27T16:31:37.862Z,101291.50
2022-11-27T16:34:06.619Z,101289.47
2022-11-27T16:36:34.565Z,101297.63
2022-11-27T16:39:03.120Z,101292.13
2022-11-27T16:41:30.996Z,101294.03
2022-11-27T16:43:58.568Z,101297.94
2022-11-27T16:46:29.456Z,101289.00
2022-11-27T16:48:59.091Z,101292.81
2022-11-27T16:51:31.288Z,101284.78
2022-11-27T16:54:03.100Z,101279.09
2022-11-27T16:56:33.440Z,101286.13
2022-11-27T16:59:11.417Z,101270.56
2022-11-27T17:01:41.668Z,101271.66
2022-11-27T17:04:16.372Z,101271.72
2022-11-27T17:06:45.604Z,101272.34
2022-11-27T17:09:14.135Z,101268.53
2022-11-27T17:11:45.419Z,101273.66
2022-11-27T17:14:13.407Z,101264.22
2022-11-27T17:16:42.670Z,101262.41
2022-11-27T17:19:13.292Z,101262.50
2022-11-27T17:21:42.704Z,101268.34
2022-11-27T17:24:15.225Z,101262.81
2022-11-27T17:26:47.642Z,101269.00
2022-11-27T17:29:18.941Z,101271.31
2022-11-27T17:31:47.194Z,101261.69
2022-11-27T17:34:16.888Z,101260.84
2022-11-27T17:36:45.981Z,101256.88
2022-11-27T17:39:15.630Z,101247.59
2022-11-27T17:41:46.979Z,101255.84
2022-11-27T17:44:15.300Z,101254.72
2022-11-27T17:46:50.058Z,101256.53
2022-11-27T17:49:21.962Z,101261.06
2022-11-27T17:51:51.400Z,101253.53
2022-11-27T17:54:20.789Z,101247.88
2022-11-27T17:56:51.353Z,101255.31
2022-11-27T17:59:20.896Z,101252.00
2022-11-27T18:01:51.372Z,101245.94
2022-11-27T18:04:20.603Z,101248.16
2022-11-27T18:06:48.527Z,101251.63
2022-11-27T18:09:16.216Z,101251.28
2022-11-27T18:11:44.020Z,101255.72
2022-11-27T18:14:13.656Z,101251.69
2022-11-27T18:16:42.158Z,101246.13
2022-11-27T18:19:11.916Z,101241.97
2022-11-27T18:21:40.276Z,101242.50
2022-11-27T18:24:22.958Z,101243.38
2022-11-27T18:27:08.129Z,101244.72
2022-11-27T18:29:42.293Z,101231.91
2022-11-27T18:32:11.671Z,101237.03
2022-11-27T18:34:40.458Z,101225.78
2022-11-27T18:37:08.284Z,101229.75
2022-11-27T18:39:36.669Z,101230.31
2022-11-27T18:42:06.001Z,101229.41
2022-11-27T18:44:37.302Z,101232.66
2022-11-27T18:47:10.172Z,101231.63
2022-11-27T18:49:39.290Z,101226.09
2022-11-27T18:52:08.704Z,101222.84
2022-11-27T18:54:37.357Z,101227.53
2022-11-27T18:57:07.060Z,101217.47
2022-11-27T18:59:35.062Z,101221.09
2022-11-27T19:02:04.266Z,101221.34
2022-11-27T19:04:34.474Z,101226.03
2022-11-27T19:07:02.429Z,101229.19
2022-11-27T19:09:30.396Z,101231.78
2022-11-27T19:11:58.836Z,101235.81
2022-11-27T19:14:26.585Z,101235.06
2022-11-27T19:16:54.386Z,101229.06
2022-11-27T19:19:53.310Z,101230.22
2022-11-27T19:22:12.903Z,101224.34
2022-11-27T19:24:41.156Z,101220.28
2022-11-27T19:27:09.168Z,101220.00
2022-11-27T19:29:37.182Z,101213.88
2022-11-27T19:32:05.394Z,101217.84
2022-11-27T19:34:33.390Z,101208.72
2022-11-27T19:37:01.558Z,101216.34
2022-11-27T19:39:29.525Z,101214.25
2022-11-27T19:41:58.080Z,101216.88
2022-11-27T19:44:26.673Z,101220.06
2022-11-27T19:46:54.863Z,101210.72
2022-11-27T19:49:23.944Z,101220.69
2022-11-27T19:51:52.248Z,101218.31
2022-11-27T19:54:21.850Z,101206.19
2022-11-27T19:56:51.265Z,101212.94
2022-11-27T19:59:22.877Z,101216.03
2022-11-27T20:01:54.259Z,101209.03
2022-11-27T20:04:26.833Z,101209.94
2022-11-27T20:06:55.191Z,101215.63
2022-11-27T20:09:23.788Z,101213.75
2022-11-27T20:11:51.748Z,101219.78
2022-11-27T20:14:20.165Z,101218.72
2022-11-27T20:16:48.291Z,101213.03
2022-11-27T20:19:17.012Z,101217.56
2022-11-27T20:21:45.709Z,101214.38
2022-11-27T20:24:14.667Z,101220.47
2022-11-27T20:26:43.272Z,101220.88
2022-11-27T20:29:13.471Z,101208.75
2022-11-27T20:31:43.829Z,101217.06
2022-11-27T20:34:18.399Z,101212.22
2022-11-27T20:36:46.781Z,101208.75
2022-11-27T20:39:20.543Z,101201.97
2022-11-27T20:41:49.921Z,101198.22
2022-11-27T20:44:18.676Z,101193.84
2022-11-27T20:46:46.741Z,101187.41
2022-11-27T20:49:15.182Z,101187.59
2022-11-27T20:51:43.366Z,101187.97
2022-11-27T20:54:11.774Z,101180.13
2022-11-27T20:56:40.904Z,101182.03
2022-11-27T20:59:09.138Z,101173.38
2022-11-27T21:01:37.617Z,101181.00
2022-11-27T21:04:11.108Z,101181.00
2022-11-27T21:06:43.698Z,101177.50
2022-11-27T21:09:13.977Z,101177.34
2022-11-27T21:11:43.594Z,101178.53
2022-11-27T21:14:14.702Z,101175.47
2022-11-27T21:16:48.394Z,101176.50
2022-11-27T21:19:24.413Z,101176.09
2022-11-27T21:21:53.547Z,101175.75
2022-11-27T21:24:25.790Z,101178.22
2022-11-27T21:26:53.549Z,101182.03
2022-11-27T21:29:25.412Z,101181.84
2022-11-27T21:31:55.415Z,101182.91
2022-11-27T21:34:24.345Z,101184.81
2022-11-27T21:36:51.972Z,101182.03
2022-11-27T21:39:22.403Z,101181.00
2022-11-27T21:41:54.712Z,101176.88
2022-11-27T21:44:24.526Z,101173.72
2022-11-27T21:46:52.192Z,101170.22
2022-11-27T21:49:20.792Z,101172.03
2022-11-27T21:51:53.576Z,101173.72
2022-11-27T21:54:24.943Z,101169.91
2022-11-27T21:56:53.431Z,101163.63
2022-11-27T21:59:21.108Z,101158.56
2022-11-27T22:01:48.848Z,101170.88
2022-11-27T22:04:16.562Z,101164.22
2022-11-27T22:06:45.235Z,101151.88
2022-11-27T22:09:15.701Z,101156.75
2022-11-27T22:11:45.771Z,101162.69
2022-11-27T22:14:15.538Z,101159.53
2022-11-27T22:16:46.415Z,101160.56
2022-11-27T22:19:16.580Z,101160.41
2022-11-27T22:21:45.093Z,101162.28
2022-11-27T22:24:18.256Z,101159.84
2022-11-27T22:26:48.143Z,101167.06
2022-11-27T22:29:16.174Z,101159.63
2022-11-27T22:31:43.738Z,101164.63
2022-11-27T22:34:11.279Z,101160.56
2022-11-27T22:36:39.457Z,101168.16
2022-11-27T22:39:08.381Z,101163.50
2022-11-27T22:41:38.308Z,101170.38
2022-11-27T22:44:11.616Z,101163.97
2022-11-27T22:46:40.996Z,101161.22
2022-11-27T22:49:11.768Z,101159.63
2022-11-27T22:51:40.020Z,101154.22
2022-11-27T22:54:10.741Z,101150.41
2022-11-27T22:56:39.747Z,101156.53
2022-11-27T23:01:55.282Z,101149.22
2022-11-27T23:04:23.043Z,101147.25
2022-11-27T23:06:50.892Z,101145.91
2022-11-27T23:09:19.016Z,101153.84
2022-11-27T23:11:47.045Z,101147.56
2022-11-27T23:14:14.538Z,101144.97
2022-11-27T23:16:42.118Z,101144.63
2022-11-27T23:19:10.708Z,101141.88
2022-11-27T23:21:39.046Z,101143.94
2022-11-27T23:24:08.642Z,101138.38
2022-11-27T23:26:36.349Z,101144.97
2022-11-27T23:29:04.067Z,101140.44
2022-11-27T23:31:35.270Z,101148.28
2022-11-27T23:34:07.511Z,101151.66
2022-11-27T23:36:36.004Z,101139.25
2022-11-27T23:39:07.848Z,101142.91
2022-11-27T23:41:35.307Z,101138.97
2022-11-27T23:44:02.879Z,101132.09
2022-11-27T23:46:31.339Z,101133.00
2022-11-27T23:49:00.012Z,101131.97
2022-11-27T23:51:31.976Z,101126.31
2022-11-27T23:54:00.529Z,101127.19
2022-11-27T23:56:30.884Z,101125.13
2022-11-27T23:58:59.489Z,101119.25
